Time;durP1;ratioP1;P1;durP2;ratioP2;P2;SDS_P1;SDS_P2;PMS_P1;PMS_P2;Temp;Humidity;BMP_temperature;BMP_pressure;BME280_temperature;BME280_humidity;BME280_pressure;Samples;Min_cycle;Max_cycle;Signal;HPM_P1;HPM_P2
2020/12/02 00:02:10;;;;;;;43.80;30.50;;;4.50;82.70;;;;;;5126784;28;20566;-62
2020/12/02 00:04:36;;;;;;;42.72;30.45;;;4.50;82.70;;;;;;5132367;28;20031;-60
2020/12/02 00:07:02;;;;;;;45.75;31.13;;;4.40;82.90;;;;;;5119702;28;20043;-62
2020/12/02 00:09:27;;;;;;;42.50;29.65;;;4.40;82.80;;;;;;5112274;28;20051;-60
2020/12/02 00:11:53;;;;;;;46.10;29.80;;;4.40;82.80;;;;;;5115766;28;20040;-58
2020/12/02 00:14:29;;;;;;;45.10;30.63;;;4.40;82.90;;;;;;5127280;28;20494;-58
2020/12/02 00:16:56;;;;;;;44.40;29.88;;;4.40;82.90;;;;;;5114862;28;20091;-58
2020/12/02 00:19:22;;;;;;;44.67;30.33;;;4.50;82.90;;;;;;5116554;28;20043;-59
2020/12/02 00:22:11;;;;;;;46.42;31.13;;;4.50;82.30;;;;;;5111743;28;20547;-60
2020/12/02 00:24:37;;;;;;;45.42;30.90;;;4.50;82.40;;;;;;5118598;27;20032;-58
2020/12/02 00:27:10;;;;;;;45.17;30.80;;;4.40;82.50;;;;;;5116149;28;20049;-58
2020/12/02 00:29:36;;;;;;;45.65;30.50;;;4.40;82.80;;;;;;5115748;28;20042;-61
2020/12/02 00:32:03;;;;;;;44.83;31.25;;;4.30;83.10;;;;;;5133733;27;20118;-60
2020/12/02 00:34:28;;;;;;;45.55;30.85;;;4.40;82.50;;;;;;5113204;27;20531;-60
2020/12/02 00:36:54;;;;;;;45.63;31.10;;;4.30;82.60;;;;;;5136428;27;20035;-59
2020/12/02 00:39:19;;;;;;;42.35;30.55;;;4.30;83.10;;;;;;5124510;27;20031;-60
2020/12/02 00:41:47;;;;;;;44.88;29.73;;;4.30;83.10;;;;;;5115945;28;20115;-58
2020/12/02 00:44:12;;;;;;;42.97;28.73;;;4.40;83.00;;;;;;5115820;27;20031;-60
2020/12/02 00:46:38;;;;;;;41.33;29.23;;;4.30;82.90;;;;;;5120609;27;20042;-61
2020/12/02 00:49:04;;;;;;;41.83;27.73;;;4.30;82.90;;;;;;5125839;27;20054;-59
2020/12/02 00:51:29;;;;;;;45.53;29.73;;;4.40;82.80;;;;;;5135359;27;20032;-60
2020/12/02 00:53:55;;;;;;;41.92;28.83;;;4.40;82.70;;;;;;5127266;27;20035;-60
2020/12/02 00:56:21;;;;;;;41.65;29.08;;;4.40;82.50;;;;;;5134749;27;20435;-61
2020/12/02 00:59:15;;;;;;;43.95;28.75;;;4.50;82.50;;;;;;5115455;28;20039;-61
2020/12/02 01:02:06;;;;;;;43.22;30.02;;;4.50;82.20;;;;;;5119249;27;20030;-61
2020/12/02 01:04:32;;;;;;;43.33;28.27;;;4.50;82.00;;;;;;5135692;27;20076;-60
2020/12/02 01:06:58;;;;;;;46.58;29.92;;;4.50;81.90;;;;;;5115802;27;20389;-59
2020/12/02 01:09:25;;;;;;;40.90;28.27;;;4.50;82.10;;;;;;5133981;27;20096;-58
2020/12/02 01:11:54;;;;;;;42.55;29.75;;;4.50;82.30;;;;;;5126014;27;20059;-60
2020/12/02 01:14:20;;;;;;;42.47;29.30;;;4.50;82.20;;;;;;5116582;28;20028;-61
2020/12/02 01:16:51;;;;;;;46.33;30.95;;;4.40;82.00;;;;;;5109795;27;20497;-61
2020/12/02 01:19:23;;;;;;;41.70;28.67;;;4.50;82.00;;;;;;5103499;28;20039;-59
2020/12/02 01:22:30;;;;;;;43.40;30.20;;;4.50;81.90;;;;;;5125240;27;20100;-59
2020/12/02 01:25:10;;;;;;;43.90;29.70;;;4.50;82.00;;;;;;5088995;27;20685;-61
2020/12/02 01:27:50;;;;;;;42.30;29.27;;;4.40;81.90;;;;;;5097381;28;20632;-62
2020/12/02 01:30:17;;;;;;;44.10;29.02;;;4.40;82.00;;;;;;5114991;27;20114;-60
2020/12/02 01:32:44;;;;;;;43.08;28.80;;;4.20;82.50;;;;;;5114484;27;20084;-59
2020/12/02 01:35:17;;;;;;;42.72;30.27;;;4.10;82.70;;;;;;5115071;27;20486;-61
2020/12/02 01:37:44;;;;;;;43.83;30.63;;;4.10;82.80;;;;;;5135369;27;20027;-61
2020/12/02 01:40:27;;;;;;;42.35;29.25;;;4.00;82.80;;;;;;5134542;27;20035;-60
2020/12/02 01:43:01;;;;;;;43.78;29.73;;;4.00;83.00;;;;;;5134871;27;20027;-60
2020/12/02 01:45:34;;;;;;;48.38;33.55;;;3.90;83.10;;;;;;5130763;27;20039;-60
2020/12/02 01:48:24;;;;;;;50.33;31.80;;;3.80;83.70;;;;;;5120754;27;20050;-60
2020/12/02 01:50:59;;;;;;;46.95;30.00;;;3.70;83.90;;;;;;5128505;27;20039;-60
2020/12/02 01:53:46;;;;;;;41.45;28.70;;;3.70;83.90;;;;;;5130518;27;20027;-59
2020/12/02 01:56:30;;;;;;;44.17;29.25;;;3.70;83.60;;;;;;5114397;28;20040;-60
2020/12/02 01:59:18;;;;;;;41.88;29.10;;;3.70;83.40;;;;;;5115069;27;20168;-60
2020/12/02 02:01:56;;;;;;;46.45;29.15;;;3.60;83.40;;;;;;5114527;27;20638;-61
2020/12/02 02:04:32;;;;;;;46.60;27.85;;;3.60;84.20;;;;;;5110407;27;20533;-61
2020/12/02 02:07:16;;;;;;;43.65;28.25;;;3.60;84.00;;;;;;5111902;28;20084;-61
2020/12/02 02:09:57;;;;;;;44.83;30.30;;;3.60;84.00;;;;;;5113136;27;20024;-58
2020/12/02 02:13:03;;;;;;;46.30;29.88;;;3.50;83.30;;;;;;5111427;28;20024;-61
2020/12/02 02:15:36;;;;;;;49.70;30.33;;;3.40;83.00;;;;;;5113840;27;20023;-59
2020/12/02 02:18:08;;;;;;;45.70;28.90;;;3.30;83.40;;;;;;5122602;27;20102;-60
2020/12/02 02:20:40;;;;;;;46.53;30.55;;;3.20;83.70;;;;;;5121334;27;20058;-58
2020/12/02 02:23:08;;;;;;;45.42;30.17;;;3.10;84.00;;;;;;5135969;27;20066;-60
2020/12/02 02:25:35;;;;;;;44.60;28.75;;;3.20;84.90;;;;;;5113130;27;20044;-60
2020/12/02 02:28:02;;;;;;;55.30;30.30;;;3.20;83.70;;;;;;5113670;27;20062;-61
2020/12/02 02:30:28;;;;;;;42.30;27.42;;;3.20;83.60;;;;;;5116752;27;20059;-58
2020/12/02 02:32:54;;;;;;;46.25;30.10;;;3.30;83.60;;;;;;5103954;28;20524;-60
2020/12/02 02:35:21;;;;;;;46.10;30.08;;;3.40;83.30;;;;;;5112482;28;20020;-60
2020/12/02 02:37:47;;;;;;;43.03;27.88;;;3.50;82.50;;;;;;5113344;28;20039;-61
2020/12/02 02:40:14;;;;;;;45.28;29.33;;;3.40;81.80;;;;;;5129457;27;20031;-60
2020/12/02 02:42:45;;;;;;;45.53;29.67;;;3.20;82.30;;;;;;5134144;27;20046;-62
2020/12/02 02:45:23;;;;;;;48.97;28.55;;;3.10;82.60;;;;;;5141896;22;20050;-61
2020/12/02 02:47:51;;;;;;;45.45;29.00;;;3.10;82.80;;;;;;5113526;28;20110;-55
2020/12/02 02:50:19;;;;;;;44.47;27.73;;;3.20;82.30;;;;;;5097401;28;20082;-61
2020/12/02 02:52:45;;;;;;;48.08;29.60;;;3.30;82.40;;;;;;5092907;28;20089;-59
2020/12/02 02:55:23;;;;;;;43.92;27.30;;;3.40;82.10;;;;;;5091517;28;20043;-60
2020/12/02 02:57:48;;;;;;;44.95;29.95;;;3.40;81.60;;;;;;5091567;28;20040;-60
2020/12/02 03:00:22;;;;;;;44.63;29.30;;;3.50;81.20;;;;;;5093519;28;20040;-59
2020/12/02 03:02:48;;;;;;;47.92;28.83;;;3.50;81.00;;;;;;5092825;28;20040;-60
2020/12/02 03:05:15;;;;;;;43.67;28.60;;;3.50;80.50;;;;;;5105620;28;20058;-60
2020/12/02 03:07:42;;;;;;;44.92;29.55;;;3.50;80.60;;;;;;5100235;28;20177;-60
2020/12/02 03:10:09;;;;;;;46.78;31.20;;;3.60;80.30;;;;;;5093319;28;20123;-60
2020/12/02 03:12:35;;;;;;;47.80;31.08;;;3.50;80.00;;;;;;5103077;28;20031;-59
2020/12/02 03:15:00;;;;;;;47.42;28.55;;;3.40;80.50;;;;;;5112086;28;20030;-58
2020/12/02 03:17:27;;;;;;;44.20;30.27;;;3.50;80.40;;;;;;5112578;28;20015;-58
2020/12/02 03:20:05;;;;;;;50.55;31.27;;;3.50;80.20;;;;;;5105651;28;20032;-59
2020/12/02 03:22:33;;;;;;;47.33;30.15;;;3.40;80.00;;;;;;5080810;28;20430;-60
2020/12/02 03:24:59;;;;;;;50.70;32.97;;;3.40;80.40;;;;;;5102814;28;20105;-59
2020/12/02 03:27:25;;;;;;;46.28;30.98;;;3.40;79.80;;;;;;5059991;28;20040;-61
2020/12/02 03:29:52;;;;;;;48.05;29.88;;;3.30;79.80;;;;;;5112452;28;20085;-59
2020/12/02 03:32:17;;;;;;;49.20;31.77;;;3.30;79.90;;;;;;5111635;28;20031;-59
2020/12/02 03:34:43;;;;;;;53.10;32.05;;;3.30;79.70;;;;;;5091980;28;20486;-60
2020/12/02 03:37:09;;;;;;;52.67;31.15;;;3.30;79.60;;;;;;5102307;28;20455;-59
2020/12/02 03:39:34;;;;;;;48.05;30.20;;;3.30;79.50;;;;;;5112281;28;20084;-57
2020/12/02 03:42:00;;;;;;;53.92;33.00;;;3.20;79.30;;;;;;5092434;28;20414;-60
2020/12/02 03:44:26;;;;;;;53.35;34.45;;;3.20;79.40;;;;;;5091835;28;20044;-60
2020/12/02 03:46:52;;;;;;;50.65;33.20;;;3.10;79.50;;;;;;5106449;28;20070;-58
2020/12/02 03:49:17;;;;;;;57.88;34.63;;;3.10;79.80;;;;;;5112253;28;20035;-60
2020/12/02 03:51:43;;;;;;;50.95;32.35;;;3.00;79.60;;;;;;5106603;28;20444;-60
2020/12/02 03:54:09;;;;;;;50.55;32.70;;;3.00;79.90;;;;;;5111504;28;20036;-58
2020/12/02 03:56:35;;;;;;;51.78;32.80;;;2.80;80.00;;;;;;5108693;28;20050;-59
2020/12/02 03:59:01;;;;;;;51.80;33.20;;;2.70;80.50;;;;;;5113340;28;20039;-60
2020/12/02 04:01:26;;;;;;;51.17;33.38;;;2.50;80.70;;;;;;5102154;28;20032;-57
2020/12/02 04:03:52;;;;;;;54.78;34.28;;;2.50;80.90;;;;;;5095260;28;20050;-61
2020/12/02 04:06:18;;;;;;;55.83;32.65;;;2.40;80.90;;;;;;5095563;28;20482;-60
2020/12/02 04:08:44;;;;;;;52.30;33.85;;;2.40;80.80;;;;;;5095877;28;20051;-59
2020/12/02 04:11:12;;;;;;;50.67;32.33;;;2.40;81.40;;;;;;5101005;28;20073;-58
2020/12/02 04:13:37;;;;;;;52.45;33.33;;;2.30;80.50;;;;;;5112067;28;20040;-60
2020/12/02 04:16:04;;;;;;;55.53;31.88;;;2.40;80.20;;;;;;5115244;28;20032;-61
2020/12/02 04:18:30;;;;;;;56.40;33.42;;;2.30;80.30;;;;;;5115945;28;20046;-61
2020/12/02 04:20:56;;;;;;;57.58;33.92;;;2.10;80.80;;;;;;5101819;28;20047;-61
2020/12/02 04:23:22;;;;;;;52.03;33.47;;;2.10;81.20;;;;;;5095782;28;20066;-60
2020/12/02 04:25:48;;;;;;;50.90;32.03;;;2.00;80.70;;;;;;5106967;28;20031;-59
2020/12/02 04:28:14;;;;;;;55.80;33.10;;;1.90;81.20;;;;;;5113918;28;20490;-60
2020/12/02 04:30:40;;;;;;;54.90;33.88;;;1.90;81.20;;;;;;5115884;28;20031;-61
2020/12/02 04:33:06;;;;;;;51.65;33.30;;;1.90;81.00;;;;;;5109882;28;20111;-58
2020/12/02 04:35:31;;;;;;;54.78;33.53;;;1.80;81.50;;;;;;5095009;28;20111;-59
2020/12/02 04:37:57;;;;;;;55.75;35.72;;;1.70;81.50;;;;;;5103693;28;20093;-56
2020/12/02 04:40:31;;;;;;;59.72;36.90;;;1.80;81.20;;;;;;5110846;28;20036;-61
2020/12/02 04:43:02;;;;;;;49.47;31.60;;;1.80;81.10;;;;;;5095366;28;20092;-61
2020/12/02 04:45:31;;;;;;;50.22;31.88;;;1.90;80.80;;;;;;5095229;28;20063;-58
2020/12/02 04:48:01;;;;;;;54.65;33.78;;;1.90;80.60;;;;;;5096159;28;20040;-55
2020/12/02 04:50:28;;;;;;;54.63;32.55;;;1.80;80.90;;;;;;5096554;28;20036;-58
2020/12/02 04:53:14;;;;;;;52.90;33.35;;;1.80;80.30;;;;;;5095034;28;20024;-58
2020/12/02 04:55:42;;;;;;;51.60;31.75;;;1.80;80.20;;;;;;5098288;28;20035;-58
2020/12/02 04:58:33;;;;;;;54.55;33.50;;;1.80;80.30;;;;;;5115720;28;20028;-53
2020/12/02 05:01:27;;;;;;;53.42;33.38;;;1.90;79.90;;;;;;5108378;28;20115;-52
2020/12/02 05:04:15;;;;;;;53.53;33.67;;;1.70;79.70;;;;;;5105063;28;20061;-58
2020/12/02 05:06:46;;;;;;;54.60;33.25;;;1.60;80.10;;;;;;5115389;28;20035;-58
2020/12/02 05:09:20;;;;;;;56.95;34.63;;;1.60;80.20;;;;;;5114262;28;20064;-60
2020/12/02 05:12:01;;;;;;;56.78;34.05;;;1.50;80.60;;;;;;5109759;28;20031;-60
2020/12/02 05:14:31;;;;;;;56.60;33.90;;;1.50;80.70;;;;;;5114711;28;20035;-58
2020/12/02 05:17:02;;;;;;;53.15;33.38;;;1.50;80.50;;;;;;5105958;28;20028;-58
2020/12/02 05:19:28;;;;;;;59.50;36.47;;;1.50;80.50;;;;;;5094940;28;20124;-60
2020/12/02 05:22:04;;;;;;;53.97;33.13;;;1.60;80.50;;;;;;5102843;28;20111;-60
2020/12/02 05:24:29;;;;;;;57.83;35.70;;;1.70;80.10;;;;;;5107267;28;20070;-56
2020/12/02 05:27:02;;;;;;;59.05;35.47;;;1.70;79.80;;;;;;5099881;28;20027;-58
2020/12/02 05:29:38;;;;;;;51.75;33.80;;;1.60;80.10;;;;;;5114669;28;20035;-62
2020/12/02 05:32:12;;;;;;;60.38;36.30;;;1.40;80.10;;;;;;5094750;28;20152;-58
2020/12/02 05:34:41;;;;;;;58.47;35.00;;;1.30;80.60;;;;;;5094238;28;20108;-55
2020/12/02 05:37:11;;;;;;;56.55;34.25;;;1.30;80.80;;;;;;5113697;28;20096;-57
2020/12/02 05:39:44;;;;;;;54.85;33.67;;;1.30;81.00;;;;;;5114746;28;20044;-56
2020/12/02 05:42:21;;;;;;;60.15;35.58;;;1.30;80.90;;;;;;5095115;28;20062;-60
2020/12/02 05:44:51;;;;;;;57.42;35.60;;;1.40;80.70;;;;;;5093478;28;20035;-60
2020/12/02 05:47:19;;;;;;;53.17;35.10;;;1.40;80.70;;;;;;5113464;28;20031;-57
2020/12/02 05:49:54;;;;;;;57.13;33.97;;;1.50;80.40;;;;;;5114071;28;20106;-57
2020/12/02 05:52:25;;;;;;;58.78;35.85;;;1.50;80.00;;;;;;5113534;28;20039;-56
2020/12/02 05:54:56;;;;;;;61.78;35.35;;;1.40;79.80;;;;;;5114255;28;20027;-58
2020/12/02 05:57:22;;;;;;;57.45;35.80;;;1.40;79.90;;;;;;5093325;28;20032;-62
2020/12/02 05:59:50;;;;;;;62.60;36.42;;;1.40;79.90;;;;;;5093815;28;20038;-58
2020/12/02 06:02:18;;;;;;;61.70;37.10;;;1.40;79.90;;;;;;5112005;28;20040;-59
2020/12/02 06:04:49;;;;;;;59.58;36.70;;;1.40;79.90;;;;;;5113285;28;20051;-59
2020/12/02 06:07:15;;;;;;;61.67;36.40;;;1.40;80.00;;;;;;5096231;28;20035;-61
2020/12/02 06:09:46;;;;;;;58.85;35.75;;;1.40;80.00;;;;;;5106023;28;20036;-56
2020/12/02 06:12:33;;;;;;;63.72;37.70;;;1.30;80.00;;;;;;5101897;28;20036;-56
2020/12/02 06:15:06;;;;;;;69.32;39.47;;;1.30;80.00;;;;;;5112478;28;20686;-58
2020/12/02 06:17:31;;;;;;;60.08;35.83;;;1.30;80.10;;;;;;5112826;28;20031;-61
2020/12/02 06:19:58;;;;;;;55.83;36.88;;;1.20;80.10;;;;;;5075348;28;20158;-61
2020/12/02 06:22:50;;;;;;;64.22;38.92;;;1.20;79.90;;;;;;5094697;28;20039;-60
2020/12/02 06:25:53;;;;;;;63.67;37.92;;;1.10;80.10;;;;;;5108852;28;20051;-61
2020/12/02 06:28:22;;;;;;;62.85;36.50;;;1.20;80.40;;;;;;5113408;28;20042;-58
2020/12/02 06:31:04;;;;;;;60.60;35.97;;;1.20;80.40;;;;;;5113566;28;20020;-59
2020/12/02 06:33:36;;;;;;;61.85;36.50;;;1.20;80.10;;;;;;5102910;28;20047;-61
2020/12/02 06:36:10;;;;;;;60.33;36.13;;;1.30;80.00;;;;;;5093158;28;20020;-63
2020/12/02 06:38:36;;;;;;;63.85;38.05;;;1.30;79.90;;;;;;5102795;28;20114;-57
2020/12/02 06:41:02;;;;;;;59.90;36.42;;;1.40;79.50;;;;;;5094639;28;20131;-61
2020/12/02 06:43:52;;;;;;;60.28;36.95;;;1.30;79.70;;;;;;5093489;28;20471;-60
2020/12/02 06:46:42;;;;;;;63.35;37.22;;;1.30;79.70;;;;;;5105487;28;20082;-59
2020/12/02 06:49:10;;;;;;;61.13;37.05;;;1.30;79.70;;;;;;5093124;28;20111;-58
2020/12/02 06:51:35;;;;;;;56.00;36.65;;;1.30;79.70;;;;;;5092895;28;20046;-56
2020/12/02 06:54:01;;;;;;;60.75;37.53;;;1.30;79.50;;;;;;5092544;28;20048;-61
2020/12/02 06:56:27;;;;;;;62.55;37.28;;;1.40;79.20;;;;;;5106363;28;20063;-60
2020/12/02 06:59:06;;;;;;;59.30;34.95;;;1.40;79.20;;;;;;5107575;28;20055;-57
2020/12/02 07:01:33;;;;;;;59.50;36.22;;;1.40;79.20;;;;;;5092802;28;20044;-56
2020/12/02 07:04:03;;;;;;;58.38;35.15;;;1.40;78.90;;;;;;5092174;28;20036;-58
2020/12/02 07:06:31;;;;;;;61.30;36.92;;;1.30;78.90;;;;;;5107140;28;20059;-61
2020/12/02 07:09:04;;;;;;;61.15;37.53;;;1.30;79.50;;;;;;5104437;28;20062;-62
2020/12/02 07:11:32;;;;;;;57.60;35.17;;;1.30;79.10;;;;;;5093460;28;20048;-62
2020/12/02 07:14:14;;;;;;;61.67;37.55;;;1.30;79.10;;;;;;5111612;28;20053;-60
2020/12/02 07:16:39;;;;;;;58.45;36.15;;;1.30;79.00;;;;;;5111617;28;20088;-59
2020/12/02 07:19:10;;;;;;;59.13;36.88;;;1.30;78.70;;;;;;5102766;28;20036;-59
2020/12/02 07:21:50;;;;;;;61.55;37.60;;;1.40;78.50;;;;;;5092382;28;20032;-57
2020/12/02 07:24:27;;;;;;;60.50;35.70;;;1.30;78.50;;;;;;5102618;28;20048;-62
2020/12/02 07:26:53;;;;;;;65.65;37.88;;;1.30;78.40;;;;;;5105306;28;20032;-63
2020/12/02 07:29:21;;;;;;;61.45;38.38;;;1.30;78.40;;;;;;5098858;28;20044;-61
2020/12/02 07:32:05;;;;;;;70.72;38.35;;;1.20;78.50;;;;;;5107811;28;20040;-61
2020/12/02 07:34:33;;;;;;;67.18;40.35;;;1.20;78.90;;;;;;5104664;28;20075;-61
2020/12/02 07:37:12;;;;;;;61.17;37.13;;;1.20;78.70;;;;;;5092182;28;20043;-62
2020/12/02 07:39:46;;;;;;;67.45;39.22;;;1.40;78.60;;;;;;5098661;28;20036;-63
2020/12/02 07:42:15;;;;;;;;;;;1.40;78.20;;;;;;5113363;28;20024;-62
2020/12/02 07:45:03;;;;;;;61.75;36.20;;;1.30;78.10;;;;;;5105557;28;20188;-62
2020/12/02 07:47:29;;;;;;;59.88;36.33;;;1.40;78.00;;;;;;5097044;28;20046;-62
2020/12/02 07:50:06;;;;;;;65.55;36.65;;;1.40;77.80;;;;;;5111830;28;20061;-62
2020/12/02 07:52:38;;;;;;;58.58;34.88;;;1.40;77.70;;;;;;5112568;28;20036;-62
2020/12/02 07:55:06;;;;;;;58.40;35.40;;;1.40;77.80;;;;;;5103461;28;20032;-63
2020/12/02 07:57:34;;;;;;;65.15;36.90;;;1.40;77.70;;;;;;5092430;28;20028;-61
2020/12/02 08:00:26;;;;;;;61.35;35.95;;;1.40;77.50;;;;;;5093838;28;20036;-62
2020/12/02 08:02:53;;;;;;;60.22;35.60;;;1.30;77.80;;;;;;5091382;28;20140;-61
2020/12/02 08:06:04;;;;;;;56.47;35.67;;;1.30;77.90;;;;;;5100844;28;20110;-62
2020/12/02 08:08:30;;;;;;;55.70;35.75;;;1.30;77.80;;;;;;5095808;28;20039;-62
2020/12/02 08:11:14;;;;;;;61.40;36.15;;;1.40;77.70;;;;;;5109489;28;20133;-63
2020/12/02 08:13:54;;;;;;;65.85;37.80;;;1.40;77.70;;;;;;5111571;28;20032;-62
2020/12/02 08:16:42;;;;;;;61.83;35.45;;;1.40;77.50;;;;;;5111810;28;20065;-62
2020/12/02 08:19:11;;;;;;;58.30;35.75;;;1.40;77.30;;;;;;5091764;28;20028;-59
2020/12/02 08:21:38;;;;;;;65.93;37.92;;;1.40;77.20;;;;;;5094308;28;20537;-62
2020/12/02 08:24:30;;;;;;;65.30;38.15;;;1.40;77.10;;;;;;5099918;28;20054;-61
2020/12/02 08:26:56;;;;;;;57.05;34.95;;;1.40;76.90;;;;;;5103998;28;20028;-61
2020/12/02 08:29:25;;;;;;;61.05;37.17;;;1.40;77.70;;;;;;5109369;28;20097;-62
2020/12/02 08:32:16;;;;;;;67.88;37.83;;;1.50;77.00;;;;;;5110598;28;20047;-61
2020/12/02 08:34:42;;;;;;;59.75;35.88;;;1.60;76.80;;;;;;5104638;28;20728;-63
2020/12/02 08:37:11;;;;;;;61.75;36.45;;;1.70;76.50;;;;;;5090675;28;20119;-62
2020/12/02 08:39:43;;;;;;;62.10;35.85;;;1.70;76.40;;;;;;5096843;28;20451;-61
2020/12/02 08:42:10;;;;;;;60.75;36.25;;;1.80;75.90;;;;;;5111953;28;20045;-62
2020/12/02 08:44:36;;;;;;;57.20;36.15;;;1.90;75.60;;;;;;5108502;28;20028;-61
2020/12/02 08:47:16;;;;;;;64.65;39.50;;;1.90;75.40;;;;;;5095969;28;20085;-61
2020/12/02 08:49:42;;;;;;;57.22;35.47;;;2.00;75.00;;;;;;5112771;28;20028;-61
2020/12/02 08:52:09;;;;;;;61.47;36.20;;;1.90;76.60;;;;;;5095869;28;20085;-62
2020/12/02 08:54:35;;;;;;;62.08;36.28;;;2.00;77.00;;;;;;5098490;28;20031;-62
2020/12/02 08:57:06;;;;;;;57.55;37.33;;;2.00;77.20;;;;;;5115691;28;20027;-62
2020/12/02 08:59:34;;;;;;;63.67;38.42;;;2.10;77.30;;;;;;5101591;28;20118;-62
2020/12/02 09:02:11;;;;;;;58.25;37.03;;;2.20;77.60;;;;;;5105495;27;20118;-62
2020/12/02 09:04:36;;;;;;;61.75;37.55;;;2.40;75.20;;;;;;5119353;27;20051;-62
2020/12/02 09:07:02;;;;;;;61.55;37.08;;;2.40;74.40;;;;;;5116867;27;20048;-62
2020/12/02 09:09:28;;;;;;;62.30;37.40;;;2.50;74.10;;;;;;5112393;28;20394;-62
2020/12/02 09:11:54;;;;;;;59.53;36.15;;;2.60;73.50;;;;;;5099310;28;20112;-62
2020/12/02 09:14:20;;;;;;;65.07;37.28;;;2.60;73.10;;;;;;5114678;28;20234;-62
2020/12/02 09:16:46;;;;;;;58.95;35.85;;;2.60;72.90;;;;;;5114699;28;20100;-62
2020/12/02 09:19:16;;;;;;;56.15;35.35;;;2.60;72.80;;;;;;5122597;27;20505;-61
2020/12/02 09:21:42;;;;;;;62.80;36.63;;;2.50;73.00;;;;;;5099923;27;20067;-62
2020/12/02 09:24:08;;;;;;;62.42;37.60;;;2.50;72.80;;;;;;5112916;27;20035;-63
2020/12/02 09:26:34;;;;;;;60.72;36.20;;;2.50;72.90;;;;;;5105365;28;20034;-62
2020/12/02 09:29:03;;;;;;;58.72;35.70;;;2.40;73.30;;;;;;5112492;28;20044;-62
2020/12/02 09:31:30;;;;;;;59.05;37.22;;;2.60;73.10;;;;;;5113050;28;20043;-62
2020/12/02 09:33:57;;;;;;;62.35;37.00;;;2.70;72.60;;;;;;5111141;27;20051;-62
2020/12/02 09:36:24;;;;;;;53.75;34.15;;;2.80;72.30;;;;;;5113921;28;20101;-63
2020/12/02 09:38:51;;;;;;;58.78;35.20;;;2.80;71.60;;;;;;5100309;28;20040;-61
2020/12/02 09:41:39;;;;;;;54.65;34.78;;;2.70;71.90;;;;;;5101119;28;20038;-62
2020/12/02 09:44:13;;;;;;;54.83;34.45;;;2.70;72.20;;;;;;5094021;28;20024;-61
2020/12/02 09:46:44;;;;;;;55.30;34.78;;;2.80;72.10;;;;;;5093504;28;20066;-60
2020/12/02 09:49:11;;;;;;;58.80;36.22;;;2.80;72.00;;;;;;5114372;27;20374;-62
2020/12/02 09:51:40;;;;;;;59.00;37.92;;;2.80;72.10;;;;;;5113975;28;20146;-63
2020/12/02 09:54:10;;;;;;;59.10;36.35;;;2.70;72.20;;;;;;5113799;28;20070;-62
2020/12/02 09:56:45;;;;;;;59.20;36.67;;;2.50;73.00;;;;;;5113801;28;20496;-62
2020/12/02 09:59:11;;;;;;;;;;;2.50;73.20;;;;;;5108511;28;20490;-62
2020/12/02 10:01:57;;;;;;;60.60;37.38;;;2.30;73.50;;;;;;5113959;28;19907;-62
2020/12/02 10:04:54;;;;;;;57.92;36.58;;;2.30;74.50;;;;;;5080661;28;20368;-62
2020/12/02 10:07:49;;;;;;;65.45;37.65;;;2.40;74.40;;;;;;5094413;28;20547;-63
2020/12/02 10:10:34;;;;;;;59.85;36.05;;;2.30;74.10;;;;;;5094149;28;20107;-62
2020/12/02 10:13:26;;;;;;;60.85;36.80;;;2.30;74.00;;;;;;5101426;27;20024;-58
2020/12/02 10:16:15;;;;;;;61.40;36.47;;;2.40;74.60;;;;;;5091996;28;20036;-62
2020/12/02 10:19:01;;;;;;;58.22;36.70;;;2.40;74.30;;;;;;5107841;28;20028;-61
2020/12/02 10:21:41;;;;;;;59.92;36.60;;;2.50;74.00;;;;;;5113388;28;20043;-62
2020/12/02 10:24:55;;;;;;;59.97;36.88;;;2.60;73.80;;;;;;5096136;28;20032;-60
2020/12/02 10:27:40;;;;;;;62.10;36.70;;;2.70;73.70;;;;;;5094520;28;20108;-62
2020/12/02 10:30:19;;;;;;;58.05;36.35;;;2.80;72.70;;;;;;5113702;28;20055;-60
2020/12/02 10:33:07;;;;;;;61.05;37.22;;;2.90;72.60;;;;;;5112541;28;20035;-61
2020/12/02 10:35:36;;;;;;;58.05;35.40;;;2.80;73.20;;;;;;5112293;28;20088;-61
2020/12/02 10:38:07;;;;;;;56.22;36.58;;;2.80;73.80;;;;;;5111233;28;20114;-61
2020/12/02 10:40:45;;;;;;;58.97;36.88;;;2.90;72.90;;;;;;5113749;28;20043;-60
2020/12/02 10:43:17;;;;;;;59.47;37.58;;;3.00;72.90;;;;;;5106667;27;20027;-62
2020/12/02 10:45:48;;;;;;;63.78;41.38;;;3.00;72.50;;;;;;5110633;28;20213;-61
2020/12/02 10:48:22;;;;;;;61.90;38.47;;;3.10;72.20;;;;;;5111486;28;20042;-62
2020/12/02 10:50:50;;;;;;;62.72;38.85;;;3.30;71.70;;;;;;5111890;28;20036;-61
2020/12/02 10:53:20;;;;;;;59.55;36.85;;;3.30;71.40;;;;;;5096075;28;20024;-62
2020/12/02 10:55:46;;;;;;;59.03;36.78;;;3.40;71.20;;;;;;5092574;28;20042;-61
2020/12/02 10:58:21;;;;;;;56.83;35.10;;;3.40;70.70;;;;;;5108386;28;20385;-62
2020/12/02 11:00:48;;;;;;;;;;;3.50;71.00;;;;;;5113292;27;20494;-62
2020/12/02 11:03:22;;;;;;;57.67;35.25;;;3.50;70.40;;;;;;5118404;27;19923;-62
2020/12/02 11:06:08;;;;;;;64.37;37.77;;;3.50;70.80;;;;;;5120112;27;20375;-60
2020/12/02 11:08:49;;;;;;;59.40;36.08;;;3.50;70.90;;;;;;5121484;27;20028;-61
2020/12/02 11:11:58;;;;;;;59.03;37.00;;;3.40;71.30;;;;;;5120344;27;20027;-62
2020/12/02 11:14:59;;;;;;;56.25;35.80;;;3.40;73.00;;;;;;5070126;27;20044;-62
2020/12/02 11:18:00;;;;;;;62.15;37.85;;;3.60;73.70;;;;;;5127144;27;20023;-62
2020/12/02 11:20:40;;;;;;;55.08;36.03;;;3.70;73.60;;;;;;5097406;27;20050;-62
2020/12/02 11:23:36;;;;;;;56.25;36.72;;;3.90;72.60;;;;;;5114024;27;20129;-59
2020/12/02 11:26:23;;;;;;;57.60;35.78;;;3.90;71.00;;;;;;5118186;27;20501;-60
2020/12/02 11:28:50;;;;;;;57.85;37.85;;;3.70;70.80;;;;;;5116601;27;20023;-59
2020/12/02 11:31:47;;;;;;;59.80;38.83;;;3.60;71.00;;;;;;5115526;27;20035;-59
2020/12/02 11:34:40;;;;;;;57.00;35.90;;;3.60;71.30;;;;;;5119000;27;20040;-59
2020/12/02 11:37:26;;;;;;;56.55;36.35;;;3.70;71.10;;;;;;5117118;27;20091;-55
2020/12/02 11:40:03;;;;;;;59.22;37.65;;;3.60;71.60;;;;;;5103900;28;20505;-54
2020/12/02 11:42:40;;;;;;;58.72;37.00;;;3.40;72.20;;;;;;5117640;28;20039;-61
2020/12/02 11:45:19;;;;;;;54.67;35.85;;;3.40;72.40;;;;;;5122912;27;20478;-57
2020/12/02 11:48:10;;;;;;;55.10;34.35;;;3.50;72.70;;;;;;5110573;28;20122;-56
2020/12/02 11:50:46;;;;;;;57.60;35.20;;;3.60;72.30;;;;;;5111581;28;20552;-59
2020/12/02 11:53:33;;;;;;;74.45;44.10;;;3.70;71.90;;;;;;5106563;28;20028;-60
2020/12/02 11:56:00;;;;;;;60.08;36.00;;;3.70;72.00;;;;;;5091398;28;20073;-58
2020/12/02 11:58:25;;;;;;;56.20;37.05;;;3.80;71.70;;;;;;5081272;28;20055;-60
2020/12/02 12:01:01;;;;;;;61.83;37.60;;;3.80;71.50;;;;;;5096726;28;20443;-61
2020/12/02 12:03:51;;;;;;;49.13;33.63;;;3.80;70.60;;;;;;5106026;28;20039;-61
2020/12/02 12:06:24;;;;;;;56.58;35.72;;;3.80;71.20;;;;;;5111462;28;20123;-58
2020/12/02 12:09:22;;;;;;;56.53;36.00;;;3.70;71.50;;;;;;5102338;28;20040;-58
2020/12/02 12:11:49;;;;;;;56.58;35.55;;;3.70;71.10;;;;;;5106301;28;20050;-61
2020/12/02 12:14:40;;;;;;;58.50;36.90;;;3.70;71.60;;;;;;5121210;28;20036;-59
2020/12/02 12:17:19;;;;;;;60.85;35.90;;;3.70;71.70;;;;;;5131855;28;20025;-60
2020/12/02 12:19:45;;;;;;;54.97;33.50;;;3.80;71.10;;;;;;5116363;28;20110;-58
2020/12/02 12:22:17;;;;;;;53.15;34.65;;;3.80;70.60;;;;;;5116333;28;20110;-60
2020/12/02 12:24:48;;;;;;;54.83;34.40;;;3.80;69.80;;;;;;5106780;28;20039;-57
2020/12/02 12:27:19;;;;;;;57.70;35.58;;;3.70;70.70;;;;;;5117022;27;20043;-61
2020/12/02 12:29:45;;;;;;;56.88;35.03;;;3.60;70.20;;;;;;5100687;28;20062;-58
2020/12/02 12:32:17;;;;;;;52.47;34.28;;;3.70;70.20;;;;;;5084642;28;20489;-62
2020/12/02 12:34:56;;;;;;;60.00;35.85;;;3.80;70.00;;;;;;5104898;28;20028;-62
2020/12/02 12:37:37;;;;;;;52.33;34.28;;;3.90;69.80;;;;;;5115757;28;20026;-62
2020/12/02 12:40:30;;;;;;;50.70;34.30;;;4.00;69.80;;;;;;5114425;28;20420;-57
2020/12/02 12:42:57;;;;;;;51.53;33.25;;;4.10;69.60;;;;;;5115593;28;20027;-59
2020/12/02 12:45:43;;;;;;;53.75;34.47;;;4.30;69.00;;;;;;5097213;28;20032;-61
2020/12/02 12:48:13;;;;;;;56.65;34.70;;;4.30;68.60;;;;;;5105320;28;20789;-59
2020/12/02 12:50:40;;;;;;;53.50;33.92;;;4.30;68.40;;;;;;5115363;28;20172;-57
2020/12/02 12:53:07;;;;;;;55.92;34.50;;;4.40;68.60;;;;;;5097550;28;20131;-61
2020/12/02 12:55:33;;;;;;;48.55;34.35;;;4.60;67.90;;;;;;5110379;28;20129;-63
2020/12/02 12:58:09;;;;;;;52.67;34.72;;;4.70;67.40;;;;;;5115263;28;20031;-58
2020/12/02 13:00:37;;;;;;;54.80;35.33;;;4.80;67.20;;;;;;5115122;28;20106;-60
2020/12/02 13:03:37;;;;;;;52.92;33.97;;;4.80;66.30;;;;;;5096115;28;20047;-57
2020/12/02 13:06:18;;;;;;;56.00;35.13;;;4.80;66.40;;;;;;5077171;28;20022;-56
2020/12/02 13:08:58;;;;;;;53.72;34.47;;;4.70;66.30;;;;;;5134027;27;20084;-61
2020/12/02 13:11:53;;;;;;;57.00;36.28;;;4.70;66.20;;;;;;5113817;28;20081;-60